EIME

Casement Air Base Airport

Baldonnel, Ireland
METAR EIME 201500Z 32009KT 9999 FEW018 SCT032 10/02 Q1028
Observed Flight Rules
Feb-20 @ 15:00 UTC (2 hours ago) Visual Flight Rules
Wind Visibility Clouds
320° at 9 knots 10,000+ meters
  • Few at 1,800' AGL
  • Scattered at 3,200' AGL
Temperatures Readings
Current 10°C / 50°F
Dewpoint 2°C / 36°F
Humidity 58%
Altimeter 30.35" Hg
Pressure 1028 hPa
Elevation 93
METAR EIME 201500Z 32009KT 9999 FEW018 SCT032 10/02 Q1028
Observed Flight Rules
Feb-20 @ 15:00 UTC
(2 hours ago)
VFR
Wind Visibility
320° at 9 knots 10,000+ meters
Clouds
  • Few at 1,800' AGL
  • Scattered at 3,200' AGL
Temperature Dewpoint
10°C / 50°F 2°C / 36°F
Humidity Altimeter Pressure
58% 30.35" Hg 1028 hPa